createdAt,value
2024-03-26T00:00:44.203Z,50.30
2024-03-26T00:03:17.670Z,46.09
2024-03-26T00:05:50.447Z,47.25
2024-03-26T00:08:24.331Z,45.07
2024-03-26T00:10:57.636Z,46.85
2024-03-26T00:13:28.638Z,48.02
2024-03-26T00:15:59.536Z,49.85
2024-03-26T00:18:33.084Z,46.91
2024-03-26T00:21:06.412Z,46.43
2024-03-26T00:23:37.526Z,43.79
2024-03-26T00:26:10.848Z,44.89
2024-03-26T00:28:43.989Z,50.05
2024-03-26T00:31:14.960Z,46.49
2024-03-26T00:33:51.620Z,48.12
2024-03-26T00:36:24.921Z,49.01
2024-03-26T00:38:55.866Z,49.65
2024-03-26T00:41:29.877Z,48.22
2024-03-26T00:44:00.752Z,48.79
2024-03-26T00:46:31.894Z,43.61
2024-03-26T00:49:02.748Z,43.96
2024-03-26T00:51:36.118Z,50.93
2024-03-26T00:54:07.434Z,38.92
2024-03-26T00:56:38.545Z,42.93
2024-03-26T00:59:09.463Z,52.21
2024-03-26T01:01:40.457Z,45.93
2024-03-26T01:04:11.329Z,47.69
2024-03-26T01:06:45.382Z,46.52
2024-03-26T01:09:16.441Z,46.60
2024-03-26T01:11:49.134Z,42.79
2024-03-26T01:14:20.053Z,46.89
2024-03-26T01:16:50.975Z,44.83
2024-03-26T01:19:21.847Z,44.67
2024-03-26T01:21:53.301Z,41.88
2024-03-26T01:24:24.271Z,46.36
2024-03-26T01:26:55.179Z,44.41
2024-03-26T01:29:26.117Z,42.01
2024-03-26T01:31:57.029Z,48.91
2024-03-26T01:34:28.046Z,47.13
2024-03-26T01:36:58.974Z,45.56
2024-03-26T01:39:29.915Z,47.45
2024-03-26T01:42:00.814Z,42.49
2024-03-26T01:44:34.047Z,44.51
2024-03-26T01:47:05.182Z,47.27
2024-03-26T01:49:37.931Z,44.67
2024-03-26T01:52:09.008Z,45.57
2024-03-26T01:54:41.487Z,44.54
2024-03-26T01:57:14.844Z,44.07
2024-03-26T01:59:46.029Z,40.65
2024-03-26T02:02:17.017Z,38.91
2024-03-26T02:04:48.895Z,37.33
2024-03-26T02:07:20.484Z,41.05
2024-03-26T02:09:52.937Z,42.95
2024-03-26T02:12:24.197Z,42.89
2024-03-26T02:14:55.119Z,39.03
2024-03-26T02:17:26.454Z,42.09
2024-03-26T02:19:57.549Z,40.69
2024-03-26T02:22:28.514Z,43.01
2024-03-26T02:24:59.654Z,42.47
2024-03-26T02:27:30.571Z,40.37
2024-03-26T02:30:01.720Z,44.47
2024-03-26T02:32:35.056Z,44.67
2024-03-26T02:35:08.492Z,40.71
2024-03-26T02:37:39.542Z,40.47
2024-03-26T02:40:10.735Z,41.44
2024-03-26T02:42:45.105Z,39.33
2024-03-26T02:45:15.986Z,39.79
2024-03-26T02:47:46.914Z,40.16
2024-03-26T02:50:17.872Z,40.66
2024-03-26T02:52:48.940Z,38.75
2024-03-26T02:55:19.834Z,36.51
2024-03-26T02:57:50.819Z,42.31
2024-03-26T03:00:21.822Z,39.83
2024-03-26T03:02:52.815Z,41.39
2024-03-26T03:05:26.184Z,39.72
2024-03-26T03:07:57.119Z,37.11
2024-03-26T03:10:28.056Z,41.86
2024-03-26T03:12:59.112Z,37.00
2024-03-26T03:15:30.000Z,40.53
2024-03-26T03:18:00.939Z,36.75
2024-03-26T03:20:32.440Z,42.63
2024-03-26T03:23:03.358Z,35.50
2024-03-26T03:25:34.275Z,42.40
2024-03-26T03:28:05.156Z,37.51
2024-03-26T03:30:38.371Z,36.94
2024-03-26T03:33:09.369Z,37.91
2024-03-26T03:35:41.624Z,38.74
2024-03-26T03:38:12.868Z,35.71
2024-03-26T03:40:43.842Z,39.66
2024-03-26T03:43:14.961Z,41.65
2024-03-26T03:45:48.077Z,35.58
2024-03-26T03:48:19.031Z,35.45
2024-03-26T03:50:49.966Z,37.62
2024-03-26T03:53:20.987Z,38.33
2024-03-26T03:55:51.879Z,35.05
2024-03-26T03:58:22.779Z,37.45
2024-03-26T04:00:53.697Z,40.74
2024-03-26T04:03:24.709Z,38.42
2024-03-26T04:05:55.581Z,40.19
2024-03-26T04:08:26.526Z,35.13
2024-03-26T04:10:58.369Z,40.88
2024-03-26T04:13:29.336Z,33.91
2024-03-26T04:16:00.334Z,36.95
2024-03-26T04:18:33.778Z,37.79
2024-03-26T04:21:07.031Z,38.56
2024-03-26T04:23:37.991Z,35.04
2024-03-26T04:26:11.699Z,34.55
2024-03-26T04:28:45.001Z,35.34
2024-03-26T04:31:15.895Z,36.83
2024-03-26T04:33:48.013Z,38.86
2024-03-26T04:36:21.190Z,35.33
2024-03-26T04:38:52.090Z,38.25
2024-03-26T04:41:25.492Z,36.47
2024-03-26T04:43:56.540Z,40.51
2024-03-26T04:46:27.426Z,37.86
2024-03-26T04:48:58.343Z,38.92
2024-03-26T04:51:29.280Z,39.53
2024-03-26T04:54:01.374Z,38.61
2024-03-26T04:56:32.299Z,37.57
2024-03-26T04:59:03.191Z,36.40
2024-03-26T05:01:34.104Z,36.35
2024-03-26T05:04:05.092Z,37.23
2024-03-26T05:06:35.987Z,37.93
2024-03-26T05:09:07.332Z,38.13
2024-03-26T05:11:38.262Z,37.79
2024-03-26T05:14:12.932Z,40.69
2024-03-26T05:16:43.869Z,37.85
2024-03-26T05:19:14.942Z,39.65
2024-03-26T05:21:45.888Z,37.63
2024-03-26T05:24:16.924Z,38.91
2024-03-26T05:26:47.817Z,38.74
2024-03-26T05:29:23.800Z,36.02
2024-03-26T05:31:54.699Z,40.49
2024-03-26T05:34:27.178Z,35.92
2024-03-26T05:37:00.615Z,37.78
2024-03-26T05:39:31.913Z,38.41
2024-03-26T05:42:05.093Z,36.25
2024-03-26T05:44:37.110Z,39.18
2024-03-26T05:47:08.083Z,39.25
2024-03-26T05:49:38.994Z,40.11
2024-03-26T05:52:09.888Z,38.49
2024-03-26T05:54:40.853Z,41.52
2024-03-26T05:57:11.773Z,37.79
2024-03-26T05:59:42.822Z,37.22
2024-03-26T06:02:13.719Z,38.81
2024-03-26T06:04:47.024Z,41.69
2024-03-26T06:07:18.019Z,39.92
2024-03-26T06:09:49.103Z,39.62
2024-03-26T06:12:19.995Z,40.08
2024-03-26T06:14:52.102Z,37.61
2024-03-26T06:17:24.125Z,40.01
2024-03-26T06:19:55.118Z,38.42
2024-03-26T06:22:26.011Z,36.38
2024-03-26T06:24:57.897Z,33.26
2024-03-26T06:27:28.978Z,37.22
2024-03-26T06:29:59.964Z,38.04
2024-03-26T06:32:30.924Z,40.59
2024-03-26T06:35:01.949Z,37.78
2024-03-26T06:37:32.822Z,38.77
2024-03-26T06:40:04.506Z,38.97
2024-03-26T06:42:35.442Z,39.59
2024-03-26T06:45:09.234Z,36.70
2024-03-26T06:47:43.222Z,36.53
2024-03-26T06:50:14.139Z,39.96
2024-03-26T06:52:48.512Z,38.15
2024-03-26T06:55:20.278Z,37.96
2024-03-26T06:57:51.352Z,36.09
2024-03-26T07:00:24.481Z,36.19
2024-03-26T07:02:58.424Z,34.77
2024-03-26T07:05:29.841Z,36.43
2024-03-26T07:08:00.786Z,35.59
2024-03-26T07:10:31.728Z,41.02
2024-03-26T07:13:04.198Z,37.88
2024-03-26T07:15:36.150Z,37.47
2024-03-26T07:18:09.426Z,38.27
2024-03-26T07:20:40.406Z,37.81
2024-03-26T07:23:11.335Z,38.99
2024-03-26T07:25:42.318Z,37.84
2024-03-26T07:28:13.324Z,36.97
2024-03-26T07:30:44.349Z,36.99
2024-03-26T07:33:15.358Z,40.25
2024-03-26T07:35:46.263Z,37.78
2024-03-26T07:38:17.743Z,37.92
2024-03-26T07:40:48.714Z,37.57
2024-03-26T07:43:23.896Z,39.68
2024-03-26T07:45:55.200Z,38.58
2024-03-26T07:48:26.962Z,37.19
2024-03-26T07:50:57.972Z,40.19
2024-03-26T07:53:30.735Z,35.63
2024-03-26T07:56:02.665Z,34.53
2024-03-26T07:58:33.817Z,39.71
2024-03-26T08:01:04.795Z,37.91
2024-03-26T08:03:35.919Z,40.37
2024-03-26T08:06:06.983Z,36.46
2024-03-26T08:08:37.986Z,33.81
2024-03-26T08:11:09.127Z,36.45
2024-03-26T08:13:40.074Z,36.59
2024-03-26T08:16:11.285Z,36.48
2024-03-26T08:18:42.294Z,34.23
2024-03-26T08:21:15.590Z,37.35
2024-03-26T08:23:46.469Z,36.91
2024-03-26T08:26:17.455Z,34.23
2024-03-26T08:28:48.336Z,35.21
2024-03-26T08:31:20.378Z,34.09
2024-03-26T08:33:51.460Z,33.27
2024-03-26T08:36:25.383Z,38.53
2024-03-26T08:38:56.353Z,37.49
2024-03-26T08:41:27.563Z,35.69
2024-03-26T08:43:59.763Z,37.07
2024-03-26T08:46:30.645Z,34.31
2024-03-26T08:49:02.179Z,37.27
2024-03-26T08:51:33.089Z,37.05
2024-03-26T08:54:09.482Z,38.46
2024-03-26T08:56:40.460Z,39.07
2024-03-26T08:59:11.363Z,37.83
2024-03-26T09:01:42.261Z,38.07
2024-03-26T09:04:13.587Z,41.20
2024-03-26T09:06:44.664Z,38.51
2024-03-26T09:09:15.649Z,37.89
2024-03-26T09:11:46.587Z,41.07
2024-03-26T09:14:18.601Z,41.84
2024-03-26T09:16:51.974Z,41.11
2024-03-26T09:19:22.874Z,41.55
2024-03-26T09:21:56.417Z,40.19
2024-03-26T09:24:39.761Z,36.49
2024-03-26T09:27:17.262Z,41.13
2024-03-26T09:29:53.976Z,37.79
2024-03-26T09:32:24.873Z,38.04
2024-03-26T09:34:55.957Z,40.16
2024-03-26T09:37:30.047Z,39.22
2024-03-26T09:40:01.663Z,38.17
2024-03-26T09:42:32.610Z,38.44
2024-03-26T09:45:06.219Z,38.01
2024-03-26T09:47:38.440Z,38.40
2024-03-26T09:50:15.382Z,37.81
2024-03-26T09:52:50.511Z,38.51
2024-03-26T09:55:23.382Z,38.05
2024-03-26T09:57:56.593Z,36.03
2024-03-26T10:00:38.161Z,39.40
2024-03-26T10:03:13.347Z,39.35
2024-03-26T10:05:49.618Z,36.67
2024-03-26T10:08:20.587Z,40.33
2024-03-26T10:10:51.560Z,38.93
2024-03-26T10:13:23.488Z,39.17
2024-03-26T10:15:56.994Z,39.15
2024-03-26T10:18:29.885Z,38.80
2024-03-26T10:21:04.016Z,38.15
2024-03-26T10:23:39.901Z,39.53
2024-03-26T10:26:12.209Z,39.19
2024-03-26T10:28:53.804Z,39.31
2024-03-26T10:31:25.600Z,42.20
2024-03-26T10:33:59.316Z,38.90
2024-03-26T10:36:30.484Z,43.39
2024-03-26T10:39:04.773Z,46.59
2024-03-26T10:41:38.948Z,40.73
2024-03-26T10:44:11.161Z,45.74
2024-03-26T10:46:45.830Z,46.19
2024-03-26T10:49:17.213Z,41.69
2024-03-26T10:51:49.650Z,45.13
2024-03-26T10:54:24.452Z,45.04
2024-03-26T10:56:56.900Z,44.89
2024-03-26T10:59:33.426Z,41.29
2024-03-26T11:02:04.513Z,47.12
2024-03-26T11:04:37.890Z,45.81
2024-03-26T11:07:09.379Z,46.29
2024-03-26T11:09:40.856Z,45.57
2024-03-26T11:12:14.799Z,46.67
2024-03-26T11:14:46.898Z,45.20
2024-03-26T11:17:17.918Z,44.81
2024-03-26T11:19:54.505Z,45.89
2024-03-26T11:22:25.450Z,46.08
2024-03-26T11:25:08.172Z,43.03
2024-03-26T11:27:39.163Z,41.84
2024-03-26T11:30:15.425Z,42.83
2024-03-26T11:32:47.088Z,43.53
2024-03-26T11:35:26.145Z,43.15
2024-03-26T11:38:02.075Z,46.63
2024-03-26T11:40:34.191Z,44.38
2024-03-26T11:43:06.290Z,40.33
2024-03-26T11:45:37.276Z,44.67
2024-03-26T11:48:08.369Z,43.27
2024-03-26T11:50:39.362Z,42.88
2024-03-26T11:53:11.043Z,41.44
2024-03-26T11:55:42.443Z,41.69
2024-03-26T11:58:13.314Z,43.73
2024-03-26T12:00:44.259Z,46.09
2024-03-26T12:03:16.309Z,43.98
2024-03-26T12:05:47.769Z,38.14
2024-03-26T12:08:22.293Z,36.87
2024-03-26T12:10:53.346Z,42.67
2024-03-26T12:13:25.394Z,38.27
2024-03-26T12:15:59.346Z,46.44
2024-03-26T12:18:32.778Z,44.90
2024-03-26T12:21:03.738Z,39.97
2024-03-26T12:23:36.920Z,42.02
2024-03-26T12:26:11.465Z,40.41
2024-03-26T12:28:45.114Z,41.42
2024-03-26T12:31:18.160Z,37.87
2024-03-26T12:33:53.786Z,41.49
2024-03-26T12:36:24.808Z,36.71
2024-03-26T12:38:59.162Z,35.27
2024-03-26T12:41:32.338Z,39.31
2024-03-26T12:44:13.021Z,39.97
2024-03-26T12:46:49.913Z,37.94
2024-03-26T12:49:23.817Z,38.45
2024-03-26T12:52:01.007Z,40.59
2024-03-26T12:54:34.531Z,34.66
2024-03-26T12:57:08.646Z,39.41
2024-03-26T12:59:42.470Z,36.15
2024-03-26T13:02:14.146Z,36.79
2024-03-26T13:04:45.199Z,39.61
2024-03-26T13:07:16.198Z,36.25
2024-03-26T13:09:49.754Z,35.14
2024-03-26T13:12:23.415Z,38.08
2024-03-26T13:14:56.833Z,37.50
2024-03-26T13:17:32.796Z,39.47
2024-03-26T13:20:06.811Z,41.45
2024-03-26T13:22:40.300Z,38.04
2024-03-26T13:25:13.741Z,39.71
2024-03-26T13:27:44.687Z,38.32
2024-03-26T13:30:22.233Z,40.65
2024-03-26T13:32:57.760Z,41.89
2024-03-26T13:35:28.789Z,40.65
2024-03-26T13:38:02.175Z,43.41
2024-03-26T13:40:49.980Z,37.35
2024-03-26T13:43:26.601Z,42.19
2024-03-26T13:45:59.946Z,41.40
2024-03-26T13:48:33.231Z,50.06
2024-03-26T13:51:04.223Z,42.35
2024-03-26T13:53:35.255Z,47.55
2024-03-26T13:56:08.652Z,44.66
2024-03-26T13:58:40.125Z,47.67
2024-03-26T14:01:14.064Z,44.65
2024-03-26T14:03:48.172Z,48.85
2024-03-26T14:06:22.182Z,47.35
2024-03-26T14:08:55.533Z,50.47
2024-03-26T14:11:29.612Z,46.27
2024-03-26T14:14:06.158Z,47.73
2024-03-26T14:16:39.364Z,50.15
2024-03-26T14:19:13.227Z,41.00
2024-03-26T14:21:49.439Z,50.85
2024-03-26T14:24:20.698Z,47.78
2024-03-26T14:26:51.800Z,51.95
2024-03-26T14:29:25.408Z,51.44
2024-03-26T14:31:59.200Z,53.92
2024-03-26T14:34:32.539Z,54.99
2024-03-26T14:37:03.484Z,49.50
2024-03-26T14:39:36.656Z,48.37
2024-03-26T14:42:07.692Z,50.77
2024-03-26T14:44:42.198Z,46.71
2024-03-26T14:47:15.326Z,50.03
2024-03-26T14:49:49.060Z,49.49
2024-03-26T14:52:19.956Z,52.31
2024-03-26T14:54:52.062Z,53.76
2024-03-26T14:57:22.989Z,52.39
2024-03-26T14:59:56.495Z,50.59
2024-03-26T15:02:29.741Z,47.58
2024-03-26T15:05:05.703Z,51.83
2024-03-26T15:07:37.413Z,50.66
2024-03-26T15:10:08.750Z,51.25
2024-03-26T15:12:42.550Z,49.47
2024-03-26T15:15:14.985Z,56.17
2024-03-26T15:17:45.933Z,52.45
2024-03-26T15:20:21.304Z,53.41
2024-03-26T15:22:52.388Z,49.42
2024-03-26T15:25:26.381Z,51.83
2024-03-26T15:28:16.134Z,51.83
2024-03-26T15:31:05.432Z,54.52
2024-03-26T15:33:37.449Z,49.91
2024-03-26T15:36:08.629Z,53.38
2024-03-26T15:38:41.848Z,51.26
2024-03-26T15:41:13.221Z,50.83
2024-03-26T15:43:44.243Z,51.29
2024-03-26T15:46:18.930Z,49.37
2024-03-26T15:48:50.114Z,49.15
2024-03-26T15:51:23.167Z,52.04
2024-03-26T15:53:55.490Z,49.52
2024-03-26T15:56:26.773Z,50.95
2024-03-26T15:58:59.875Z,46.97
2024-03-26T16:01:30.859Z,50.20
2024-03-26T16:04:04.460Z,48.33
2024-03-26T16:06:37.698Z,47.43
2024-03-26T16:09:09.736Z,52.88
2024-03-26T16:11:41.316Z,47.39
2024-03-26T16:14:13.450Z,44.83
2024-03-26T16:16:46.597Z,43.75
2024-03-26T16:19:18.362Z,43.76
2024-03-26T16:21:49.512Z,47.09
2024-03-26T16:24:21.541Z,44.89
2024-03-26T16:26:59.666Z,44.69
2024-03-26T16:29:30.685Z,46.93
2024-03-26T16:32:05.475Z,44.31
2024-03-26T16:34:36.870Z,44.66
2024-03-26T16:37:07.805Z,46.56
2024-03-26T16:39:38.748Z,43.22
2024-03-26T16:42:10.869Z,45.15
2024-03-26T16:44:44.745Z,42.08
2024-03-26T16:47:16.160Z,47.05
2024-03-26T16:49:47.387Z,47.03
2024-03-26T16:52:18.284Z,47.32
2024-03-26T16:54:49.741Z,51.31
2024-03-26T16:57:20.704Z,50.83
2024-03-26T16:59:53.821Z,58.53
2024-03-26T17:02:24.711Z,59.24
2024-03-26T17:05:02.793Z,97.59
2024-03-26T17:07:33.953Z,161.15
2024-03-26T17:10:09.889Z,76.58
2024-03-26T17:12:40.836Z,59.05
2024-03-26T17:15:11.829Z,61.99
2024-03-26T17:17:43.521Z,61.58
2024-03-26T17:20:16.612Z,67.13
2024-03-26T17:22:52.629Z,66.10
2024-03-26T17:25:26.853Z,64.19
2024-03-26T17:27:58.166Z,55.30
2024-03-26T17:30:29.516Z,49.90
2024-03-26T17:33:02.869Z,45.27
2024-03-26T17:35:36.177Z,50.03
2024-03-26T17:38:10.197Z,56.13
2024-03-26T17:40:42.323Z,55.79
2024-03-26T17:43:14.542Z,64.37
2024-03-26T17:45:45.481Z,55.96
2024-03-26T17:48:16.456Z,54.87
2024-03-26T17:50:47.431Z,60.81
2024-03-26T17:53:18.487Z,53.21
2024-03-26T17:55:49.519Z,61.75
2024-03-26T17:58:20.418Z,58.37
2024-03-26T18:00:51.560Z,63.07
2024-03-26T18:03:22.669Z,56.71
2024-03-26T18:05:53.581Z,62.60
2024-03-26T18:08:24.549Z,72.62
2024-03-26T18:10:57.804Z,71.45
2024-03-26T18:13:31.739Z,65.82
2024-03-26T18:16:11.174Z,66.82
2024-03-26T18:18:48.102Z,66.53
2024-03-26T18:21:22.788Z,56.83
2024-03-26T18:23:56.222Z,53.47
2024-03-26T18:26:30.189Z,60.76
2024-03-26T18:29:04.516Z,60.32
2024-03-26T18:31:38.317Z,61.11
2024-03-26T18:34:12.431Z,73.03
2024-03-26T18:36:43.447Z,71.49
2024-03-26T18:39:19.643Z,65.01
2024-03-26T18:41:50.623Z,62.03
2024-03-26T18:44:21.758Z,66.57
2024-03-26T18:46:52.848Z,64.52
2024-03-26T18:49:29.215Z,66.49
2024-03-26T18:52:04.521Z,65.04
2024-03-26T18:54:43.421Z,62.54
2024-03-26T18:57:18.077Z,124.82
2024-03-26T18:59:54.536Z,130.80
2024-03-26T19:02:25.548Z,97.94
2024-03-26T19:05:02.554Z,91.60
2024-03-26T19:07:35.992Z,134.68
2024-03-26T19:10:13.253Z,104.34
2024-03-26T19:12:44.354Z,78.65
2024-03-26T19:15:20.676Z,186.84
2024-03-26T19:17:54.155Z,140.83
2024-03-26T19:20:27.508Z,135.91
2024-03-26T19:23:01.277Z,145.33
2024-03-26T19:25:32.306Z,172.24
2024-03-26T19:28:07.253Z,174.21
2024-03-26T19:30:41.547Z,120.07
2024-03-26T19:33:13.944Z,124.19
2024-03-26T19:35:45.706Z,104.33
2024-03-26T19:38:19.049Z,169.95
2024-03-26T19:40:55.589Z,114.81
2024-03-26T19:43:27.779Z,112.03
2024-03-26T19:46:08.980Z,173.16
2024-03-26T19:48:41.220Z,296.93
2024-03-26T19:51:17.377Z,163.59
2024-03-26T19:53:54.030Z,139.60
2024-03-26T19:56:25.019Z,163.48
2024-03-26T19:59:00.995Z,155.07
2024-03-26T20:01:35.217Z,123.21
2024-03-26T20:04:06.323Z,123.74
2024-03-26T20:06:40.125Z,112.06
2024-03-26T20:09:11.262Z,116.55
2024-03-26T20:11:47.381Z,144.37
2024-03-26T20:14:18.427Z,101.04
2024-03-26T20:16:49.439Z,137.45
2024-03-26T20:19:21.796Z,142.78
2024-03-26T20:21:56.409Z,184.45
2024-03-26T20:24:27.598Z,148.61
2024-03-26T20:27:01.006Z,131.43
2024-03-26T20:29:32.068Z,133.03
2024-03-26T20:32:11.380Z,127.47
2024-03-26T20:34:42.572Z,138.25
2024-03-26T20:37:14.025Z,121.18
2024-03-26T20:39:44.993Z,91.41
2024-03-26T20:42:16.214Z,89.47
2024-03-26T20:44:49.568Z,88.65
2024-03-26T20:47:23.253Z,119.31
2024-03-26T20:49:54.285Z,137.85
2024-03-26T20:52:25.332Z,125.05
2024-03-26T20:54:59.002Z,90.73
2024-03-26T20:57:32.425Z,98.55
2024-03-26T21:00:03.430Z,146.89
2024-03-26T21:02:34.537Z,107.43
2024-03-26T21:05:05.530Z,131.93
2024-03-26T21:07:37.319Z,80.32
2024-03-26T21:10:09.254Z,110.87
2024-03-26T21:12:40.456Z,112.95
2024-03-26T21:15:20.476Z,101.07
2024-03-26T21:17:59.496Z,122.85
2024-03-26T21:20:33.012Z,105.16
2024-03-26T21:23:04.843Z,93.37
2024-03-26T21:25:38.133Z,80.57
2024-03-26T21:28:09.258Z,72.37
2024-03-26T21:30:40.282Z,77.25
2024-03-26T21:33:11.427Z,80.17
2024-03-26T21:35:42.395Z,73.19
2024-03-26T21:38:13.493Z,63.11
2024-03-26T21:40:44.439Z,60.39
2024-03-26T21:43:15.626Z,61.48
2024-03-26T21:45:49.350Z,56.17
2024-03-26T21:48:20.952Z,55.64
2024-03-26T21:50:58.577Z,51.81
2024-03-26T21:53:30.311Z,54.45
2024-03-26T21:56:06.447Z,51.57
2024-03-26T21:58:37.408Z,46.89
2024-03-26T22:01:11.377Z,48.09
2024-03-26T22:03:43.966Z,52.31
2024-03-26T22:06:15.994Z,47.67
2024-03-26T22:08:47.602Z,46.19
2024-03-26T22:11:18.512Z,47.89
2024-03-26T22:13:50.564Z,54.53
2024-03-26T22:16:21.499Z,48.35
2024-03-26T22:18:52.708Z,47.49
2024-03-26T22:21:23.652Z,49.34
2024-03-26T22:23:54.725Z,46.29
2024-03-26T22:26:25.785Z,42.33
2024-03-26T22:28:56.712Z,46.71
2024-03-26T22:31:27.630Z,47.99
2024-03-26T22:33:58.714Z,45.52
2024-03-26T22:36:29.646Z,46.79
2024-03-26T22:39:00.649Z,48.19
2024-03-26T22:41:34.454Z,42.53
2024-03-26T22:44:11.058Z,45.41
2024-03-26T22:46:43.081Z,47.15
2024-03-26T22:49:18.982Z,43.11
2024-03-26T22:51:52.499Z,39.21
2024-03-26T22:54:27.751Z,39.77
2024-03-26T22:57:01.132Z,39.77
2024-03-26T22:59:33.059Z,36.75
2024-03-26T23:02:06.292Z,33.71
2024-03-26T23:04:37.384Z,36.86
2024-03-26T23:07:08.408Z,37.93
2024-03-26T23:09:41.725Z,34.61
2024-03-26T23:12:15.130Z,34.65
2024-03-26T23:14:47.315Z,35.19
2024-03-26T23:17:20.465Z,32.89
2024-03-26T23:19:51.434Z,37.24
2024-03-26T23:22:22.337Z,37.13
2024-03-26T23:24:55.730Z,34.95
2024-03-26T23:27:32.758Z,34.87
2024-03-26T23:30:04.596Z,33.07
2024-03-26T23:32:35.541Z,34.11
2024-03-26T23:35:06.603Z,33.41
2024-03-26T23:37:37.800Z,34.87
2024-03-26T23:40:17.610Z,36.70
2024-03-26T23:42:51.158Z,34.33
2024-03-26T23:45:22.132Z,37.74
2024-03-26T23:47:53.111Z,37.41
2024-03-26T23:50:24.730Z,36.17
2024-03-26T23:52:55.837Z,35.26
2024-03-26T23:55:26.773Z,35.27
2024-03-26T23:58:00.088Z,38.80
